Sid Moller — WDF9421 — position and weather

sailwx.info

Track history (hours):
 
Tides and Currents Weather Stations Pressure Air Temp Water Temp Dewpoint Dewpoint Depression Visibility Wind Speed Wind Dir Waves Ship Positions

Sid Moller

Owner: Genesis Marine, LLC, Houston, TX. More information available from US FCC via Universal Licensing System and Coast Guard Vessel Documentation Center.

Last reported at 2015-May-09 16:33 UTC. Time now 2015-May-25 15:37 UTC.
Position N 29°27' W 094°51'.
Warning: this ship's position is 15 days out of date.

MMSI: 367504980.

Date/timePositionNaut miles runAvg speedWind from/ knotsBaromVisibWave heightAir tempDewpointWater temp
2015-May-09 16:33N 29°27' W 094°51'6 5.9
2015-May-09 15:33N 29°32' W 094°54'6 6.4
2015-May-09 14:34N 29°38' W 094°58'4 4.4
2015-May-09 13:33N 29°41' W 095°01'0 0.0
2015-May-09 12:34N 29°41' W 095°01'0 0.0
2015-May-09 11:34N 29°41' W 095°01'0 0.0
2015-May-09 10:33N 29°41' W 095°01'0 0.0
2015-May-09 09:34N 29°41' W 095°01'0 0.0
2015-May-09 08:34N 29°41' W 095°00'2 2.4
2015-May-09 07:34N 29°43' W 095°01'4 4.1
2015-May-09 06:34N 29°46' W 095°05'2 0.4
2015-May-09 00:14N 29°44' W 095°08'0 0.0
2015-May-08 23:24N 29°44' W 095°08'0 0.0
2015-May-08 20:24N 29°44' W 095°08'0 0.0
2015-May-08 00:05N 29°44' W 095°08'1 2.6
2015-May-07 23:33N 29°45' W 095°06'1 0.1
2015-May-07 14:33N 29°46' W 095°07'0 0.0
2015-May-07 13:13N 29°46' W 095°07'0 0.0
2015-May-07 04:33N 29°46' W 095°07'0 0.0
2015-May-06 14:33N 29°46' W 095°07'0 0.0
2015-May-04 17:28N 29°46' W 095°07'0 0.0
2015-May-04 16:33N 29°46' W 095°07'0 0.0
2015-May-04 15:33N 29°46' W 095°07'0 0.0
2015-May-04 14:33N 29°46' W 095°07'0 0.0
2015-May-04 13:33N 29°46' W 095°07'0 0.0
2015-May-04 12:33N 29°46' W 095°07'0 0.0
2015-May-04 11:33N 29°46' W 095°07'0 0.0
2015-May-04 10:33N 29°46' W 095°07'0 0.0
2015-May-04 09:33N 29°46' W 095°07'0 0.0
2015-May-04 08:33N 29°46' W 095°07'0 0.0
2015-May-04 07:33N 29°46' W 095°07'0 0.0
2015-May-04 06:33N 29°46' W 095°07'0 0.0
2015-May-04 05:33N 29°46' W 095°07'0 0.0
2015-May-04 04:33N 29°46' W 095°07'0 0.0
2015-May-04 03:33N 29°46' W 095°07'0 0.0
2015-May-04 02:33N 29°46' W 095°07'0 0.0
2015-May-04 01:33N 29°46' W 095°07'0 0.0
2015-May-04 00:33N 29°46' W 095°07'0 0.0
2015-May-03 23:33N 29°46' W 095°07'0 0.0
2015-May-03 22:32N 29°46' W 095°07'0 0.0
2015-May-03 21:34N 29°46' W 095°07'0 0.1
2015-May-03 20:33N 29°46' W 095°07'0 0.0
2015-May-03 19:34N 29°46' W 095°07'0 0.0
2015-May-03 18:33N 29°46' W 095°07'0 0.0
2015-May-03 17:33N 29°46' W 095°07'0 0.0
2015-May-03 16:33N 29°46' W 095°07'0 0.0
2015-May-03 15:33N 29°46' W 095°07'0 0.0
2015-May-03 14:33N 29°46' W 095°07'1 1.0
2015-May-03 13:34N 29°45' W 095°06'3 3.3
2015-May-03 12:33N 29°44' W 095°02'4 4.5
2015-May-03 11:33N 29°41' W 094°59'4 3.7
2015-May-03 10:33N 29°37' W 094°58'3 2.9
2015-May-03 09:33N 29°37' W 095°02'0 0.0
2015-May-03 08:33N 29°37' W 095°02'0 0.0
2015-May-03 07:33N 29°37' W 095°02'0 0.0
2015-May-03 06:33N 29°37' W 095°02'0 0.0
2015-May-03 05:33N 29°37' W 095°02'0 0.0
2015-May-03 04:33N 29°37' W 095°02'0 0.0
2015-May-03 03:33N 29°37' W 095°02'0 0.0
2015-May-03 02:33N 29°37' W 095°02'0 0.0
2015-May-03 01:33N 29°37' W 095°02'0 0.0
2015-May-03 00:33N 29°37' W 095°02'0 0.0
2015-May-02 23:33N 29°37' W 095°02'0 0.0
2015-May-02 22:33N 29°37' W 095°02'0 0.0
2015-May-02 21:33N 29°37' W 095°02'0 0.1
2015-May-02 20:33N 29°37' W 095°01'0 0.0
2015-May-02 19:33N 29°37' W 095°01'0 0.0
2015-May-02 18:33N 29°37' W 095°01'0 0.0
2015-May-02 17:33N 29°37' W 095°01'0 0.0
2015-May-02 16:33N 29°37' W 095°01'0 0.0
2015-May-02 15:33N 29°37' W 095°01'0 0.0
2015-May-02 14:33N 29°37' W 095°01'0 0.0
2015-May-02 13:33N 29°37' W 095°01'0 0.0
2015-May-02 12:33N 29°37' W 095°01'0 0.0
2015-May-02 11:34N 29°37' W 095°01'0 0.0
2015-May-02 10:33N 29°37' W 095°01'0 0.0
2015-May-02 09:33N 29°37' W 095°01'0 0.0
2015-May-02 08:33N 29°37' W 095°01'0 0.0
2015-May-02 07:33N 29°37' W 095°01'0 0.0
2015-May-02 06:33N 29°37' W 095°01'0 0.0
2015-May-02 05:33N 29°37' W 095°01'0 0.0
2015-May-02 04:33N 29°37' W 095°01'0 0.0
2015-May-02 03:34N 29°37' W 095°02'0 0.2
2015-May-02 02:33N 29°37' W 095°01'0 0.0
2015-May-02 01:34N 29°37' W 095°01'0 0.0
2015-May-02 00:33N 29°37' W 095°01'0 0.0
2015-May-01 23:34N 29°37' W 095°01'0 0.0
2015-May-01 22:33N 29°37' W 095°01'0 0.0
2015-May-01 21:33N 29°37' W 095°01'0 0.0
2015-May-01 20:33N 29°37' W 095°01'0 0.0
2015-May-01 19:33N 29°37' W 095°01'0 0.0
2015-May-01 18:33N 29°37' W 095°01'0 0.0
2015-May-01 17:33N 29°37' W 095°01'0 0.0
2015-May-01 16:33N 29°37' W 095°01'0 0.0
2015-May-01 15:33N 29°37' W 095°01'0 0.0
2015-May-01 14:33N 29°37' W 095°01'0 0.0
2015-May-01 13:33N 29°37' W 095°01'0 0.0
2015-May-01 12:34N 29°37' W 095°01'0 0.0
2015-May-01 11:33N 29°37' W 095°01'0 0.0
2015-May-01 10:33N 29°37' W 095°01'0 0.0
2015-May-01 09:33N 29°37' W 095°01'0 0.0
2015-May-01 08:33N 29°37' W 095°01'0 0.0
2015-May-01 07:33N 29°37' W 095°01'0 0.0
2015-May-01 06:33N 29°37' W 095°01'3 3.4
2015-May-01 05:33N 29°37' W 094°58'6 6.0
2015-May-01 04:33N 29°32' W 094°54'6 5.8
2015-May-01 03:33N 29°27' W 094°50'  
Track history (hours):
 
Tides and Currents Weather Stations Pressure Air Temp Water Temp Dewpoint Dewpoint Depression Visibility Wind Speed Wind Dir Waves Ship Positions

Sid Moller

Owner: Genesis Marine, LLC, Houston, TX. More information available from US FCC via Universal Licensing System and Coast Guard Vessel Documentation Center.

Last reported at 2015-May-09 16:33 UTC. Time now 2015-May-25 15:37 UTC.
Position N 29°27' W 094°51'.
Warning: this ship's position is 15 days out of date.

MMSI: 367504980.

Date/timePositionNaut miles runAvg speedWind from/ knotsBaromVisibWave heightAir tempDewpointWater temp
2015-May-09 16:33N 29°27' W 094°51'6 5.9
2015-May-09 15:33N 29°32' W 094°54'6 6.4
2015-May-09 14:34N 29°38' W 094°58'4 4.4
2015-May-09 13:33N 29°41' W 095°01'0 0.0
2015-May-09 12:34N 29°41' W 095°01'0 0.0
2015-May-09 11:34N 29°41' W 095°01'0 0.0
2015-May-09 10:33N 29°41' W 095°01'0 0.0
2015-May-09 09:34N 29°41' W 095°01'0 0.0
2015-May-09 08:34N 29°41' W 095°00'2 2.4
2015-May-09 07:34N 29°43' W 095°01'4 4.1
2015-May-09 06:34N 29°46' W 095°05'2 0.4
2015-May-09 00:14N 29°44' W 095°08'0 0.0
2015-May-08 23:24N 29°44' W 095°08'0 0.0
2015-May-08 20:24N 29°44' W 095°08'0 0.0
2015-May-08 00:05N 29°44' W 095°08'1 2.6
2015-May-07 23:33N 29°45' W 095°06'1 0.1
2015-May-07 14:33N 29°46' W 095°07'0 0.0
2015-May-07 13:13N 29°46' W 095°07'0 0.0
2015-May-07 04:33N 29°46' W 095°07'0 0.0
2015-May-06 14:33N 29°46' W 095°07'0 0.0
2015-May-04 17:28N 29°46' W 095°07'0 0.0
2015-May-04 16:33N 29°46' W 095°07'0 0.0
2015-May-04 15:33N 29°46' W 095°07'0 0.0
2015-May-04 14:33N 29°46' W 095°07'0 0.0
2015-May-04 13:33N 29°46' W 095°07'0 0.0
2015-May-04 12:33N 29°46' W 095°07'0 0.0
2015-May-04 11:33N 29°46' W 095°07'0 0.0
2015-May-04 10:33N 29°46' W 095°07'0 0.0
2015-May-04 09:33N 29°46' W 095°07'0 0.0
2015-May-04 08:33N 29°46' W 095°07'0 0.0
2015-May-04 07:33N 29°46' W 095°07'0 0.0
2015-May-04 06:33N 29°46' W 095°07'0 0.0
2015-May-04 05:33N 29°46' W 095°07'0 0.0
2015-May-04 04:33N 29°46' W 095°07'0 0.0
2015-May-04 03:33N 29°46' W 095°07'0 0.0
2015-May-04 02:33N 29°46' W 095°07'0 0.0
2015-May-04 01:33N 29°46' W 095°07'0 0.0
2015-May-04 00:33N 29°46' W 095°07'0 0.0
2015-May-03 23:33N 29°46' W 095°07'0 0.0
2015-May-03 22:32N 29°46' W 095°07'0 0.0
2015-May-03 21:34N 29°46' W 095°07'0 0.1
2015-May-03 20:33N 29°46' W 095°07'0 0.0
2015-May-03 19:34N 29°46' W 095°07'0 0.0
2015-May-03 18:33N 29°46' W 095°07'0 0.0
2015-May-03 17:33N 29°46' W 095°07'0 0.0
2015-May-03 16:33N 29°46' W 095°07'0 0.0
2015-May-03 15:33N 29°46' W 095°07'0 0.0
2015-May-03 14:33N 29°46' W 095°07'1 1.0
2015-May-03 13:34N 29°45' W 095°06'3 3.3
2015-May-03 12:33N 29°44' W 095°02'4 4.5
2015-May-03 11:33N 29°41' W 094°59'4 3.7
2015-May-03 10:33N 29°37' W 094°58'3 2.9
2015-May-03 09:33N 29°37' W 095°02'0 0.0
2015-May-03 08:33N 29°37' W 095°02'0 0.0
2015-May-03 07:33N 29°37' W 095°02'0 0.0
2015-May-03 06:33N 29°37' W 095°02'0 0.0
2015-May-03 05:33N 29°37' W 095°02'0 0.0
2015-May-03 04:33N 29°37' W 095°02'0 0.0
2015-May-03 03:33N 29°37' W 095°02'0 0.0
2015-May-03 02:33N 29°37' W 095°02'0 0.0
2015-May-03 01:33N 29°37' W 095°02'0 0.0
2015-May-03 00:33N 29°37' W 095°02'0 0.0
2015-May-02 23:33N 29°37' W 095°02'0 0.0
2015-May-02 22:33N 29°37' W 095°02'0 0.0
2015-May-02 21:33N 29°37' W 095°02'0 0.1
2015-May-02 20:33N 29°37' W 095°01'0 0.0
2015-May-02 19:33N 29°37' W 095°01'0 0.0
2015-May-02 18:33N 29°37' W 095°01'0 0.0
2015-May-02 17:33N 29°37' W 095°01'0 0.0
2015-May-02 16:33N 29°37' W 095°01'0 0.0
2015-May-02 15:33N 29°37' W 095°01'0 0.0
2015-May-02 14:33N 29°37' W 095°01'0 0.0
2015-May-02 13:33N 29°37' W 095°01'0 0.0
2015-May-02 12:33N 29°37' W 095°01'0 0.0
2015-May-02 11:34N 29°37' W 095°01'0 0.0
2015-May-02 10:33N 29°37' W 095°01'0 0.0
2015-May-02 09:33N 29°37' W 095°01'0 0.0
2015-May-02 08:33N 29°37' W 095°01'0 0.0
2015-May-02 07:33N 29°37' W 095°01'0 0.0
2015-May-02 06:33N 29°37' W 095°01'0 0.0
2015-May-02 05:33N 29°37' W 095°01'0 0.0
2015-May-02 04:33N 29°37' W 095°01'0 0.0
2015-May-02 03:34N 29°37' W 095°02'0 0.2
2015-May-02 02:33N 29°37' W 095°01'0 0.0
2015-May-02 01:34N 29°37' W 095°01'0 0.0
2015-May-02 00:33N 29°37' W 095°01'0 0.0
2015-May-01 23:34N 29°37' W 095°01'0 0.0
2015-May-01 22:33N 29°37' W 095°01'0 0.0
2015-May-01 21:33N 29°37' W 095°01'0 0.0
2015-May-01 20:33N 29°37' W 095°01'0 0.0
2015-May-01 19:33N 29°37' W 095°01'0 0.0
2015-May-01 18:33N 29°37' W 095°01'0 0.0
2015-May-01 17:33N 29°37' W 095°01'0 0.0
2015-May-01 16:33N 29°37' W 095°01'0 0.0
2015-May-01 15:33N 29°37' W 095°01'0 0.0
2015-May-01 14:33N 29°37' W 095°01'0 0.0
2015-May-01 13:33N 29°37' W 095°01'0 0.0
2015-May-01 12:34N 29°37' W 095°01'0 0.0
2015-May-01 11:33N 29°37' W 095°01'0 0.0
2015-May-01 10:33N 29°37' W 095°01'0 0.0
2015-May-01 09:33N 29°37' W 095°01'0 0.0
2015-May-01 08:33N 29°37' W 095°01'0 0.0
2015-May-01 07:33N 29°37' W 095°01'0 0.0
2015-May-01 06:33N 29°37' W 095°01'3 3.4
2015-May-01 05:33N 29°37' W 094°58'6 6.0
2015-May-01 04:33N 29°32' W 094°54'6 5.8
2015-May-01 03:33N 29°27' W 094°50'  

Dump ship's entire track history